Time;durP1;ratioP1;P1;durP2;ratioP2;P2;SDS_P1;SDS_P2;PMS_P1;PMS_P2;Temp;Humidity;BMP_temperature;BMP_pressure;BME280_temperature;BME280_humidity;BME280_pressure;Samples;Min_cycle;Max_cycle;Signal;HPM_P1;HPM_P2
2023/04/13 00:00:09;;;;;;;1.80;0.52;;;9.20;73.90;;;;;;5010372;28;20030;-69
2023/04/13 00:02:37;;;;;;;5.68;0.30;;;9.20;73.80;;;;;;5011063;28;20503;-69
2023/04/13 00:05:12;;;;;;;1.05;0.45;;;9.30;73.80;;;;;;5008068;28;20032;-66
2023/04/13 00:07:38;;;;;;;0.55;0.40;;;9.20;74.00;;;;;;5009063;28;20083;-66
2023/04/13 00:10:08;;;;;;;0.43;0.40;;;9.20;73.90;;;;;;5010470;28;20034;-67
2023/04/13 00:12:35;;;;;;;0.30;0.30;;;9.20;74.00;;;;;;4986683;28;20038;-66
2023/04/13 00:15:02;;;;;;;0.20;0.20;;;9.20;74.00;;;;;;5010938;28;20025;-66
2023/04/13 00:17:28;;;;;;;1.65;0.50;;;9.20;74.00;;;;;;5006256;28;20096;-67
2023/04/13 00:19:56;;;;;;;3.75;0.50;;;9.20;74.10;;;;;;5006184;28;20029;-66
2023/04/13 00:22:29;;;;;;;0.70;0.60;;;9.20;74.10;;;;;;4988931;28;20122;-66
2023/04/13 00:24:55;;;;;;;0.40;0.40;;;9.10;74.10;;;;;;5010870;28;20101;-66
2023/04/13 00:27:25;;;;;;;6.55;0.55;;;9.10;74.20;;;;;;5001109;28;20028;-66
2023/04/13 00:29:51;;;;;;;0.35;0.30;;;9.10;74.10;;;;;;4991999;28;20060;-66
2023/04/13 00:32:16;;;;;;;0.20;0.20;;;9.10;73.90;;;;;;4993971;28;20466;-66
2023/04/13 00:34:44;;;;;;;0.80;0.55;;;9.20;74.10;;;;;;5004154;28;20048;-66
2023/04/13 00:37:10;;;;;;;0.30;0.30;;;9.20;74.00;;;;;;4999938;28;20030;-66
2023/04/13 00:39:36;;;;;;;0.98;0.70;;;9.20;73.70;;;;;;5007668;28;20031;-66
2023/04/13 00:42:02;;;;;;;2.10;0.43;;;9.20;73.70;;;;;;5000862;28;20036;-66
2023/04/13 00:44:29;;;;;;;0.32;0.32;;;9.20;73.70;;;;;;4977091;28;20036;-65
2023/04/13 00:46:55;;;;;;;0.20;0.20;;;9.20;73.80;;;;;;4993798;28;20041;-69
2023/04/13 00:49:21;;;;;;;0.43;0.25;;;9.20;73.90;;;;;;5007867;28;20042;-69
2023/04/13 00:51:47;;;;;;;0.50;0.50;;;9.20;73.90;;;;;;5010729;28;20053;-69
2023/04/13 00:54:15;;;;;;;0.28;0.28;;;9.20;74.00;;;;;;5010400;28;20477;-69
2023/04/13 00:56:42;;;;;;;0.45;0.22;;;9.20;74.10;;;;;;5009825;28;20374;-69
2023/04/13 00:59:11;;;;;;;2.42;0.32;;;9.20;74.10;;;;;;5008044;28;20038;-69
2023/04/13 01:01:44;;;;;;;0.35;0.30;;;9.20;74.30;;;;;;4991824;28;20072;-69
2023/04/13 01:04:12;;;;;;;0.82;0.52;;;9.20;74.50;;;;;;5009195;28;20037;-68
2023/04/13 01:06:43;;;;;;;3.05;0.60;;;9.20;75.20;;;;;;5010463;28;20037;-68
2023/04/13 01:09:17;;;;;;;1.23;0.63;;;9.10;74.80;;;;;;4991125;28;20068;-67
2023/04/13 01:11:58;;;;;;;0.65;0.55;;;9.10;75.20;;;;;;5009301;28;20453;-68
2023/04/13 01:14:39;;;;;;;2.92;0.68;;;9.10;75.70;;;;;;5004013;28;20026;-69
2023/04/13 01:17:22;;;;;;;0.85;0.57;;;9.00;76.40;;;;;;5009579;28;20392;-69
2023/04/13 01:20:09;;;;;;;1.02;0.52;;;9.00;76.50;;;;;;5006898;28;20401;-69
2023/04/13 01:22:38;;;;;;;0.32;0.32;;;8.90;77.10;;;;;;5004277;28;20040;-69
2023/04/13 01:25:17;;;;;;;1.20;0.57;;;8.90;77.40;;;;;;5009615;28;20738;-69
2023/04/13 01:27:54;;;;;;;0.70;0.55;;;9.00;77.60;;;;;;5008515;28;20397;-65
2023/04/13 01:30:23;;;;;;;1.55;0.55;;;9.00;77.70;;;;;;5001043;28;20156;-69
2023/04/13 01:32:51;;;;;;;1.27;0.60;;;8.90;77.80;;;;;;5009698;28;20518;-69
2023/04/13 01:35:18;;;;;;;2.53;0.88;;;8.90;78.10;;;;;;4980236;28;20042;-69
2023/04/13 01:37:45;;;;;;;1.55;0.47;;;8.90;78.70;;;;;;4992156;28;20060;-66
2023/04/13 01:40:12;;;;;;;0.20;0.20;;;8.90;78.90;;;;;;5008765;28;20032;-66
2023/04/13 01:42:39;;;;;;;0.20;0.20;;;8.90;78.90;;;;;;4987113;28;20029;-65
2023/04/13 01:45:18;;;;;;;0.60;0.57;;;9.00;78.80;;;;;;5008497;28;20014;-66
2023/04/13 01:47:56;;;;;;;0.93;0.68;;;9.00;78.90;;;;;;5010016;28;20404;-66
2023/04/13 01:50:44;;;;;;;0.73;0.20;;;9.00;79.20;;;;;;5007390;28;20061;-66
2023/04/13 01:53:16;;;;;;;0.63;0.40;;;9.00;79.60;;;;;;5010067;28;20580;-66
2023/04/13 01:55:43;;;;;;;1.35;0.47;;;8.90;80.00;;;;;;5008066;28;20778;-66
2023/04/13 01:58:12;;;;;;;1.23;0.30;;;8.90;80.30;;;;;;5009185;28;20037;-69
2023/04/13 02:00:38;;;;;;;0.85;0.82;;;8.90;80.70;;;;;;5007238;28;20053;-69
2023/04/13 02:03:06;;;;;;;1.10;0.55;;;8.90;80.70;;;;;;5007173;28;20022;-69
2023/04/13 02:05:36;;;;;;;2.00;0.40;;;8.90;81.00;;;;;;5006279;28;20030;-66
2023/04/13 02:08:04;;;;;;;0.30;0.30;;;8.90;81.10;;;;;;5009908;28;20041;-66
2023/04/13 02:10:34;;;;;;;7.75;0.95;;;8.90;81.00;;;;;;4989165;28;20038;-65
2023/04/13 02:13:03;;;;;;;1.25;0.88;;;8.90;81.20;;;;;;5009822;28;20484;-68
2023/04/13 02:15:30;;;;;;;0.40;0.40;;;8.90;81.20;;;;;;5007131;28;20546;-65
2023/04/13 02:17:55;;;;;;;1.10;0.47;;;9.00;81.20;;;;;;5009669;28;20065;-65
2023/04/13 02:20:21;;;;;;;0.32;0.32;;;9.00;81.20;;;;;;5000732;28;20030;-65
2023/04/13 02:22:47;;;;;;;1.85;0.80;;;9.00;81.30;;;;;;5008456;28;20042;-65
2023/04/13 02:25:14;;;;;;;4.90;0.52;;;9.10;81.30;;;;;;5007820;28;20022;-73
2023/04/13 02:27:40;;;;;;;0.68;0.40;;;9.00;81.40;;;;;;4990605;28;20026;-65
2023/04/13 02:30:08;;;;;;;6.50;0.80;;;9.10;81.60;;;;;;4992607;28;20025;-66
2023/04/13 02:32:40;;;;;;;0.75;0.20;;;9.00;81.90;;;;;;5006514;28;20171;-65
2023/04/13 02:35:10;;;;;;;1.17;0.38;;;9.00;81.90;;;;;;5007944;28;20022;-65
2023/04/13 02:37:41;;;;;;;2.75;0.82;;;9.10;81.80;;;;;;5009848;28;20033;-65
2023/04/13 02:40:09;;;;;;;0.55;0.30;;;9.10;81.80;;;;;;4989085;28;20501;-65
2023/04/13 02:42:36;;;;;;;0.65;0.65;;;9.10;81.90;;;;;;5008774;28;20117;-68
2023/04/13 02:45:03;;;;;;;1.48;0.70;;;9.00;82.20;;;;;;5007469;28;20080;-65
2023/04/13 02:47:29;;;;;;;0.63;0.45;;;9.00;82.50;;;;;;4993861;28;20065;-65
2023/04/13 02:49:54;;;;;;;0.75;0.43;;;9.00;82.40;;;;;;4989221;28;20030;-65
2023/04/13 02:52:20;;;;;;;0.98;0.63;;;9.10;82.30;;;;;;4973460;28;20054;-65
2023/04/13 02:54:46;;;;;;;0.63;0.45;;;9.10;82.20;;;;;;4989913;28;20038;-66
2023/04/13 02:57:12;;;;;;;1.02;0.65;;;9.10;82.20;;;;;;5008040;28;20518;-66
2023/04/13 02:59:42;;;;;;;2.13;0.93;;;9.10;82.50;;;;;;5000812;28;20038;-66
2023/04/13 03:02:08;;;;;;;0.40;0.35;;;9.10;82.50;;;;;;4986804;28;20053;-66
2023/04/13 03:04:34;;;;;;;1.20;0.52;;;9.10;82.60;;;;;;5004763;28;20026;-66
2023/04/13 03:07:03;;;;;;;0.98;0.60;;;9.00;82.80;;;;;;5003912;28;20029;-66
2023/04/13 03:09:30;;;;;;;2.47;0.40;;;9.00;82.80;;;;;;5001663;28;20041;-66
2023/04/13 03:11:55;;;;;;;0.28;0.28;;;9.00;83.00;;;;;;4987999;28;20076;-66
2023/04/13 03:14:21;;;;;;;1.83;0.85;;;9.00;82.90;;;;;;5004093;28;20042;-66
2023/04/13 03:16:48;;;;;;;0.52;0.40;;;9.00;82.80;;;;;;5009033;28;20050;-66
2023/04/13 03:19:15;;;;;;;2.13;0.70;;;9.00;82.70;;;;;;5011076;28;20639;-66
2023/04/13 03:21:44;;;;;;;0.80;0.50;;;9.00;82.60;;;;;;5013418;28;20025;-65
2023/04/13 03:24:11;;;;;;;0.55;0.55;;;9.00;82.60;;;;;;5010706;28;20022;-64
2023/04/13 03:26:37;;;;;;;0.73;0.50;;;8.90;82.40;;;;;;5010260;28;20400;-67
2023/04/13 03:29:02;;;;;;;0.25;0.25;;;8.90;82.30;;;;;;5012205;28;20034;-68
2023/04/13 03:31:29;;;;;;;0.25;0.22;;;8.90;82.30;;;;;;5012311;28;20034;-69
2023/04/13 03:33:56;;;;;;;2.88;0.77;;;8.90;82.30;;;;;;5011690;28;20033;-68
2023/04/13 03:36:23;;;;;;;0.22;0.22;;;8.90;82.30;;;;;;5012873;28;20133;-69
2023/04/13 03:38:48;;;;;;;0.77;0.32;;;8.90;82.20;;;;;;5011028;28;20041;-69
2023/04/13 03:41:14;;;;;;;2.03;0.70;;;8.80;82.10;;;;;;4990594;28;20034;-69
2023/04/13 03:43:40;;;;;;;0.40;0.30;;;8.80;82.10;;;;;;5005213;28;20028;-69
2023/04/13 03:46:06;;;;;;;0.68;0.47;;;8.80;82.00;;;;;;4994340;28;20041;-69
2023/04/13 03:48:33;;;;;;;3.15;0.60;;;8.70;82.10;;;;;;5006770;28;20132;-66
2023/04/13 03:50:58;;;;;;;0.20;0.20;;;8.70;82.20;;;;;;4989344;28;20039;-70
2023/04/13 03:53:25;;;;;;;0.63;0.22;;;8.70;82.30;;;;;;5009660;28;20420;-69
2023/04/13 03:55:51;;;;;;;2.35;1.05;;;8.60;82.10;;;;;;5009990;28;20048;-69
2023/04/13 03:58:17;;;;;;;1.65;0.45;;;8.60;82.10;;;;;;5007041;28;20026;-66
2023/04/13 04:00:43;;;;;;;0.57;0.40;;;8.60;81.90;;;;;;5008414;28;20053;-66
2023/04/13 04:03:09;;;;;;;1.65;0.50;;;8.60;81.90;;;;;;4992639;28;20130;-66
2023/04/13 04:05:37;;;;;;;0.77;0.52;;;8.70;81.90;;;;;;5009397;28;20032;-66
2023/04/13 04:08:03;;;;;;;0.60;0.60;;;8.60;81.90;;;;;;4992032;28;20148;-66
2023/04/13 04:10:29;;;;;;;1.95;0.60;;;8.60;82.00;;;;;;5007179;28;20568;-66
2023/04/13 04:12:56;;;;;;;0.85;0.57;;;8.50;82.00;;;;;;4986331;28;20030;-66
2023/04/13 04:15:21;;;;;;;2.05;0.82;;;8.50;82.00;;;;;;5008547;28;20420;-66
2023/04/13 04:17:47;;;;;;;2.20;0.80;;;8.50;82.10;;;;;;5007767;28;20044;-66
2023/04/13 04:20:13;;;;;;;0.30;0.30;;;8.50;82.00;;;;;;5008138;28;20104;-66
2023/04/13 04:22:40;;;;;;;1.83;0.80;;;8.50;81.90;;;;;;5001034;28;20109;-66
2023/04/13 04:25:07;;;;;;;4.35;0.50;;;8.50;81.80;;;;;;5008241;28;20033;-66
2023/04/13 04:27:39;;;;;;;1.15;0.80;;;8.50;81.90;;;;;;5006977;28;20037;-66
2023/04/13 04:30:06;;;;;;;0.60;0.35;;;8.50;81.80;;;;;;4991266;28;20030;-66
2023/04/13 04:32:35;;;;;;;0.47;0.45;;;8.60;82.10;;;;;;5004838;28;20106;-66
2023/04/13 04:35:02;;;;;;;0.75;0.60;;;8.50;82.00;;;;;;5008225;28;20022;-65
2023/04/13 04:37:29;;;;;;;0.47;0.30;;;8.50;81.80;;;;;;5010659;28;20129;-66
2023/04/13 04:39:55;;;;;;;1.85;0.50;;;8.60;81.80;;;;;;5008197;28;20104;-65
2023/04/13 04:42:21;;;;;;;3.10;0.60;;;8.60;81.80;;;;;;4992259;28;20064;-65
2023/04/13 04:44:48;;;;;;;2.90;0.52;;;8.60;81.70;;;;;;5007776;28;20734;-66
2023/04/13 04:47:18;;;;;;;1.20;0.60;;;8.60;81.70;;;;;;4969116;28;1139882;-66
2023/04/13 04:49:44;;;;;;;1.70;0.68;;;8.60;81.70;;;;;;5006573;28;20124;-66
2023/04/13 04:52:11;;;;;;;0.75;0.55;;;8.60;81.60;;;;;;5007561;28;20034;-67
2023/04/13 04:54:38;;;;;;;1.67;0.63;;;8.60;81.50;;;;;;4992994;28;20546;-66
2023/04/13 04:57:04;;;;;;;2.75;0.70;;;8.60;81.50;;;;;;4987759;28;20036;-69
2023/04/13 04:59:29;;;;;;;0.40;0.40;;;8.60;81.50;;;;;;4991234;28;20350;-69
2023/04/13 05:01:55;;;;;;;0.47;0.38;;;8.60;81.50;;;;;;5010681;28;20500;-69
2023/04/13 05:04:21;;;;;;;0.68;0.68;;;8.60;81.40;;;;;;5003155;28;20026;-69
2023/04/13 05:06:47;;;;;;;0.93;0.70;;;8.70;81.40;;;;;;5008054;28;20358;-69
2023/04/13 05:09:13;;;;;;;0.68;0.40;;;8.70;81.40;;;;;;5007076;28;20045;-69
2023/04/13 05:11:40;;;;;;;2.97;1.10;;;8.70;81.40;;;;;;5009429;28;20142;-69
2023/04/13 05:14:06;;;;;;;0.40;0.40;;;8.70;81.70;;;;;;5007667;28;20373;-69
2023/04/13 05:16:32;;;;;;;3.78;0.85;;;8.70;81.70;;;;;;5009653;28;20380;-66
2023/04/13 05:18:58;;;;;;;5.22;0.80;;;8.70;81.60;;;;;;5000779;28;20489;-66
2023/04/13 05:21:25;;;;;;;2.58;0.95;;;8.80;81.60;;;;;;5009117;28;20030;-66
2023/04/13 05:23:51;;;;;;;1.63;0.82;;;8.80;81.50;;;;;;5004160;28;20157;-66
2023/04/13 05:26:19;;;;;;;1.60;0.68;;;8.80;81.30;;;;;;5009550;28;20109;-69
2023/04/13 05:28:45;;;;;;;2.22;1.00;;;8.80;81.30;;;;;;4989631;28;20041;-69
2023/04/13 05:31:11;;;;;;;1.52;1.00;;;8.80;81.30;;;;;;5007094;28;20080;-66
2023/04/13 05:33:36;;;;;;;3.58;0.68;;;8.80;81.40;;;;;;5008700;28;20026;-66
2023/04/13 05:36:03;;;;;;;1.55;1.23;;;8.80;81.60;;;;;;5006717;28;20038;-66
2023/04/13 05:38:29;;;;;;;3.53;1.88;;;8.90;81.60;;;;;;5010984;28;20052;-69
2023/04/13 05:40:56;;;;;;;5.40;1.60;;;9.00;81.40;;;;;;5006444;28;20396;-69
2023/04/13 05:43:22;;;;;;;2.47;1.58;;;9.00;81.60;;;;;;5008433;28;20034;-69
2023/04/13 05:45:48;;;;;;;2.00;1.08;;;9.00;81.60;;;;;;5010303;28;20096;-67
2023/04/13 05:48:14;;;;;;;2.58;1.58;;;9.10;81.70;;;;;;5009403;28;20098;-66
2023/04/13 05:50:39;;;;;;;1.33;0.88;;;9.10;81.50;;;;;;4992398;28;20429;-66
2023/04/13 05:53:05;;;;;;;2.97;1.42;;;9.20;81.40;;;;;;5006962;28;20497;-66
2023/04/13 05:55:32;;;;;;;2.65;1.30;;;9.30;81.30;;;;;;5006431;28;20099;-67
2023/04/13 05:57:59;;;;;;;5.38;1.58;;;9.40;81.10;;;;;;5007105;28;20448;-67
2023/04/13 06:00:26;;;;;;;2.53;1.75;;;9.50;80.80;;;;;;5006319;28;20037;-66
2023/04/13 06:02:52;;;;;;;2.90;1.30;;;9.50;80.60;;;;;;5008073;28;20778;-65
2023/04/13 06:05:18;;;;;;;2.65;1.20;;;9.60;80.70;;;;;;5009831;28;20112;-69
2023/04/13 06:07:45;;;;;;;5.50;2.30;;;9.60;80.60;;;;;;5007927;28;20030;-68
2023/04/13 06:10:11;;;;;;;2.50;1.15;;;9.60;80.50;;;;;;5007378;28;20029;-69
2023/04/13 06:12:37;;;;;;;3.03;1.90;;;9.60;80.40;;;;;;5008816;28;20048;-69
2023/04/13 06:15:03;;;;;;;1.50;0.93;;;9.60;80.50;;;;;;5007902;28;20034;-69
2023/04/13 06:17:30;;;;;;;1.75;1.08;;;9.50;80.50;;;;;;5007981;28;20086;-68
2023/04/13 06:19:55;;;;;;;3.60;1.20;;;9.50;80.60;;;;;;5008164;28;20499;-65
2023/04/13 06:22:21;;;;;;;2.67;1.38;;;9.50;80.50;;;;;;5008627;28;20404;-69
2023/04/13 06:24:49;;;;;;;6.18;1.27;;;9.50;80.50;;;;;;4990245;28;20452;-68
2023/04/13 06:27:15;;;;;;;2.60;1.45;;;9.50;80.60;;;;;;5007028;28;20465;-69
2023/04/13 06:29:40;;;;;;;2.72;1.42;;;9.50;80.80;;;;;;5004865;28;20041;-69
2023/04/13 06:32:06;;;;;;;4.13;2.05;;;9.40;80.90;;;;;;4989609;28;20516;-66
2023/04/13 06:34:33;;;;;;;2.10;1.17;;;9.40;81.00;;;;;;5008106;28;20501;-66
2023/04/13 06:36:59;;;;;;;7.53;2.63;;;9.40;81.10;;;;;;5008475;28;20428;-67
2023/04/13 06:39:26;;;;;;;2.25;1.88;;;9.40;81.10;;;;;;5002073;28;20022;-65
2023/04/13 06:41:52;;;;;;;3.15;1.90;;;9.40;81.10;;;;;;5002410;28;20120;-65
2023/04/13 06:44:18;;;;;;;4.07;2.03;;;9.40;81.30;;;;;;5006876;28;20458;-66
2023/04/13 06:46:43;;;;;;;4.90;1.77;;;9.30;81.30;;;;;;5009032;28;20100;-65
2023/04/13 06:49:09;;;;;;;2.45;0.95;;;9.30;81.20;;;;;;5009709;28;20121;-65
2023/04/13 06:51:35;;;;;;;1.65;0.98;;;9.20;81.00;;;;;;5004421;28;20076;-65
2023/04/13 06:54:01;;;;;;;2.25;1.42;;;9.20;81.00;;;;;;5007909;28;20073;-66
2023/04/13 06:56:26;;;;;;;5.45;1.63;;;9.10;80.90;;;;;;4984447;28;20137;-64
2023/04/13 06:58:57;;;;;;;2.17;1.17;;;9.10;80.80;;;;;;5009308;28;20046;-66
2023/04/13 07:01:23;;;;;;;1.83;1.17;;;9.20;80.80;;;;;;4990257;28;20611;-66
2023/04/13 07:03:49;;;;;;;1.80;1.15;;;9.20;80.60;;;;;;5009749;28;20025;-66
2023/04/13 07:06:15;;;;;;;1.90;1.25;;;9.20;80.50;;;;;;5009758;28;20396;-66
2023/04/13 07:08:40;;;;;;;1.73;1.10;;;9.20;80.90;;;;;;4991999;28;20380;-66
2023/04/13 07:11:06;;;;;;;1.63;1.15;;;9.20;81.30;;;;;;5009675;28;20484;-66
2023/04/13 07:13:32;;;;;;;1.85;1.05;;;9.20;81.40;;;;;;5010150;28;20030;-66
2023/04/13 07:15:58;;;;;;;2.78;1.45;;;9.20;81.50;;;;;;5009863;28;20488;-66
2023/04/13 07:18:23;;;;;;;2.28;1.00;;;9.20;81.70;;;;;;5009232;28;20033;-68
2023/04/13 07:20:49;;;;;;;1.13;1.02;;;9.10;81.70;;;;;;5009778;28;20038;-68
2023/04/13 07:23:15;;;;;;;2.13;1.02;;;9.20;82.50;;;;;;5010005;28;20045;-67
2023/04/13 07:25:41;;;;;;;0.68;0.68;;;9.20;81.90;;;;;;5005606;28;20113;-67
2023/04/13 07:28:06;;;;;;;1.10;1.00;;;9.10;81.90;;;;;;5007620;28;20030;-67
2023/04/13 07:30:32;;;;;;;1.63;0.90;;;9.10;82.10;;;;;;5007183;28;20042;-69
2023/04/13 07:32:58;;;;;;;0.80;0.80;;;9.10;82.10;;;;;;5008577;28;20040;-65
2023/04/13 07:35:23;;;;;;;0.68;0.68;;;9.20;82.10;;;;;;5001346;28;20377;-68
2023/04/13 07:37:49;;;;;;;2.70;0.80;;;9.20;82.10;;;;;;5007078;28;20034;-68
2023/04/13 07:40:15;;;;;;;1.83;0.98;;;9.20;82.20;;;;;;5006153;28;20030;-68
2023/04/13 07:42:43;;;;;;;1.30;1.02;;;9.20;82.30;;;;;;4992148;28;20037;-65
2023/04/13 07:45:09;;;;;;;5.63;1.27;;;9.30;82.30;;;;;;5002277;28;20465;-65
2023/04/13 07:47:35;;;;;;;1.73;1.00;;;9.40;82.40;;;;;;5000995;28;20038;-68
2023/04/13 07:50:03;;;;;;;2.70;1.00;;;9.50;82.40;;;;;;4983488;28;20037;-68
2023/04/13 07:52:28;;;;;;;2.67;1.35;;;9.50;82.20;;;;;;5002617;28;20041;-68
2023/04/13 07:54:54;;;;;;;0.68;0.50;;;9.60;82.20;;;;;;5009172;28;20034;-65
2023/04/13 07:57:21;;;;;;;3.40;1.65;;;9.60;82.20;;;;;;4987360;28;20156;-65
2023/04/13 07:59:47;;;;;;;1.83;1.17;;;9.50;82.40;;;;;;4986016;28;20366;-65
2023/04/13 08:02:13;;;;;;;1.98;1.27;;;9.50;82.50;;;;;;5005269;28;20080;-65
2023/04/13 08:04:39;;;;;;;1.30;0.90;;;9.50;82.80;;;;;;5007210;28;20034;-68
2023/04/13 08:07:06;;;;;;;2.28;0.85;;;9.60;82.80;;;;;;5009975;28;20111;-68
2023/04/13 08:09:37;;;;;;;1.70;0.90;;;9.60;82.80;;;;;;5011323;28;20105;-65
2023/04/13 08:12:03;;;;;;;2.80;0.93;;;9.80;82.50;;;;;;5011392;28;20884;-69
2023/04/13 08:14:29;;;;;;;1.73;0.90;;;9.80;82.30;;;;;;4994927;28;20072;-65
2023/04/13 08:16:54;;;;;;;2.00;1.30;;;9.90;82.10;;;;;;5010254;28;20105;-69
2023/04/13 08:19:20;;;;;;;2.00;1.00;;;10.00;82.10;;;;;;5007602;28;20073;-69
2023/04/13 08:21:46;;;;;;;2.22;0.98;;;10.00;82.10;;;;;;4996503;28;20029;-74
2023/04/13 08:24:11;;;;;;;4.95;1.38;;;10.00;82.10;;;;;;5007401;28;20022;-73
2023/04/13 08:26:38;;;;;;;4.38;1.75;;;10.00;82.20;;;;;;5008385;28;20034;-74
2023/04/13 08:29:04;;;;;;;5.28;1.80;;;10.00;82.20;;;;;;5002921;28;20036;-69
2023/04/13 08:31:31;;;;;;;10.18;1.58;;;10.00;82.50;;;;;;4984863;28;20493;-70
2023/04/13 08:33:57;;;;;;;1.63;1.20;;;10.00;82.50;;;;;;5005996;28;20495;-71
2023/04/13 08:36:22;;;;;;;2.95;1.23;;;10.00;82.40;;;;;;5002557;28;20029;-71
2023/04/13 08:38:48;;;;;;;6.95;1.30;;;10.10;82.40;;;;;;5005507;28;20038;-72
2023/04/13 08:41:16;;;;;;;1.85;1.58;;;10.10;82.50;;;;;;5004249;28;20034;-74
2023/04/13 08:43:42;;;;;;;3.65;1.30;;;10.00;82.50;;;;;;5009362;28;20163;-73
2023/04/13 08:46:08;;;;;;;2.33;1.15;;;10.00;82.60;;;;;;5010647;28;20041;-73
2023/04/13 08:48:38;;;;;;;1.83;0.98;;;10.10;82.60;;;;;;4993534;28;20060;-73
2023/04/13 08:51:05;;;;;;;1.48;1.00;;;10.10;82.70;;;;;;5015342;28;20424;-73
2023/04/13 08:53:31;;;;;;;6.07;1.35;;;10.10;82.70;;;;;;4997521;28;20029;-73
2023/04/13 08:56:01;;;;;;;1.00;0.77;;;10.10;82.70;;;;;;5012619;28;20032;-72
2023/04/13 08:58:29;;;;;;;6.20;1.85;;;10.20;82.80;;;;;;5010469;28;20163;-73
2023/04/13 09:00:56;;;;;;;3.55;1.17;;;10.30;82.80;;;;;;5010294;28;20125;-71
2023/04/13 09:03:28;;;;;;;4.50;1.02;;;10.40;82.60;;;;;;5001508;28;20038;-66
2023/04/13 09:06:03;;;;;;;2.38;0.95;;;10.50;82.20;;;;;;4987678;28;20033;-70
2023/04/13 09:08:34;;;;;;;3.13;1.05;;;10.60;81.80;;;;;;5005313;28;20637;-68
2023/04/13 09:11:01;;;;;;;1.95;0.93;;;10.70;81.80;;;;;;4992056;28;20026;-68
2023/04/13 09:13:27;;;;;;;3.10;1.27;;;10.80;81.50;;;;;;4987281;28;20053;-71
2023/04/13 09:15:53;;;;;;;5.13;1.00;;;10.80;81.30;;;;;;5009824;28;20112;-71
2023/04/13 09:18:19;;;;;;;1.92;1.20;;;10.90;81.00;;;;;;4983744;28;20044;-68
2023/04/13 09:20:58;;;;;;;2.33;0.95;;;10.90;80.90;;;;;;5007625;28;20674;-68
2023/04/13 09:23:24;;;;;;;12.15;1.35;;;10.90;80.50;;;;;;5000405;28;20607;-71
2023/04/13 09:26:08;;;;;;;5.45;1.52;;;10.90;80.50;;;;;;4986745;28;20087;-69
2023/04/13 09:28:45;;;;;;;3.42;1.52;;;10.90;80.30;;;;;;5002663;28;20388;-71
2023/04/13 09:31:12;;;;;;;4.97;1.33;;;11.00;79.60;;;;;;5002893;28;20025;-71
2023/04/13 09:33:50;;;;;;;13.05;1.25;;;11.10;79.50;;;;;;5006791;28;20609;-72
2023/04/13 09:36:20;;;;;;;6.00;1.17;;;11.10;78.70;;;;;;4995830;28;20030;-68
2023/04/13 09:38:56;;;;;;;3.10;1.40;;;11.10;78.70;;;;;;5007625;28;20030;-72
2023/04/13 09:41:34;;;;;;;2.08;1.60;;;11.00;78.60;;;;;;5006903;28;20109;-72
2023/04/13 09:44:21;;;;;;;2.60;0.85;;;11.00;79.20;;;;;;5004967;28;20449;-72
2023/04/13 09:47:00;;;;;;;4.95;1.38;;;11.00;80.00;;;;;;4998891;28;20026;-72
2023/04/13 09:49:37;;;;;;;1.90;1.05;;;11.10;79.30;;;;;;5003587;28;20042;-72
2023/04/13 09:52:04;;;;;;;4.15;1.08;;;11.00;79.50;;;;;;5002204;28;20531;-68
2023/04/13 09:54:29;;;;;;;6.05;1.58;;;11.00;79.60;;;;;;5007276;28;20034;-71
2023/04/13 09:56:56;;;;;;;5.78;1.13;;;11.00;79.60;;;;;;5001096;28;20045;-68
2023/04/13 09:59:22;;;;;;;2.58;0.90;;;10.90;79.90;;;;;;5002109;28;20603;-69
2023/04/13 10:01:49;;;;;;;5.05;1.42;;;10.90;80.30;;;;;;4999896;28;20022;-68
2023/04/13 10:04:15;;;;;;;1.95;1.05;;;10.90;80.40;;;;;;4990765;28;20603;-68
2023/04/13 10:06:43;;;;;;;7.53;1.58;;;10.90;80.50;;;;;;5005444;28;20030;-71
2023/04/13 10:09:09;;;;;;;7.47;1.77;;;11.10;80.80;;;;;;5003944;28;20408;-68
2023/04/13 10:11:45;;;;;;;1.45;0.80;;;11.30;80.40;;;;;;5004073;28;20439;-68
2023/04/13 10:14:20;;;;;;;11.73;1.65;;;11.50;80.20;;;;;;5002320;28;20060;-68
2023/04/13 10:17:18;;;;;;;3.03;1.15;;;11.60;79.40;;;;;;5006018;28;20029;-69
2023/04/13 10:19:52;;;;;;;6.60;1.48;;;11.70;77.00;;;;;;4969875;28;20495;-68
2023/04/13 10:22:22;;;;;;;4.10;1.52;;;11.80;75.80;;;;;;4988355;28;20026;-69
2023/04/13 10:24:49;;;;;;;1.52;1.00;;;11.80;75.30;;;;;;5005434;28;20029;-68
2023/04/13 10:27:17;;;;;;;4.47;1.42;;;11.80;74.60;;;;;;4988594;28;20033;-72
2023/04/13 10:29:43;;;;;;;11.13;1.48;;;11.90;73.70;;;;;;5007410;28;20053;-70
2023/04/13 10:32:25;;;;;;;2.22;1.50;;;11.90;72.80;;;;;;5007470;28;20030;-72
2023/04/13 10:34:52;;;;;;;4.03;1.08;;;11.90;72.20;;;;;;5002885;28;20089;-69
2023/04/13 10:37:27;;;;;;;1.80;0.90;;;11.90;72.50;;;;;;4985798;28;20026;-70
2023/04/13 10:40:12;;;;;;;2.05;0.63;;;12.00;73.00;;;;;;5007422;28;20069;-72
2023/04/13 10:42:43;;;;;;;3.75;1.30;;;12.10;72.80;;;;;;5004382;28;20034;-72
2023/04/13 10:45:23;;;;;;;1.10;0.93;;;12.00;72.70;;;;;;5002048;28;20045;-69
2023/04/13 10:47:49;;;;;;;9.48;0.88;;;12.00;72.80;;;;;;5009616;28;20068;-72
2023/04/13 10:50:28;;;;;;;3.15;1.02;;;12.10;72.50;;;;;;4990982;28;20726;-72
2023/04/13 10:52:53;;;;;;;7.47;0.95;;;12.10;72.60;;;;;;4990411;28;20064;-72
2023/04/13 10:55:22;;;;;;;1.63;0.60;;;12.10;72.80;;;;;;5009339;28;20049;-69
2023/04/13 10:57:48;;;;;;;3.70;1.20;;;12.00;72.80;;;;;;5007061;28;20032;-69
2023/04/13 11:00:20;;;;;;;4.57;1.40;;;12.00;73.30;;;;;;5008122;28;20038;-70
2023/04/13 11:02:50;;;;;;;2.22;0.75;;;12.00;73.90;;;;;;5009109;28;20424;-69
2023/04/13 11:05:19;;;;;;;3.28;1.17;;;12.20;74.40;;;;;;4992049;28;20144;-70
2023/04/13 11:07:46;;;;;;;3.42;1.35;;;12.50;73.80;;;;;;5008148;28;20077;-70
2023/04/13 11:10:11;;;;;;;3.33;1.25;;;12.60;72.70;;;;;;5009267;28;20353;-69
2023/04/13 11:12:38;;;;;;;5.22;2.10;;;12.60;72.70;;;;;;4989879;28;20030;-69
2023/04/13 11:15:04;;;;;;;1.65;0.63;;;12.40;72.90;;;;;;5002534;28;20092;-69
2023/04/13 11:17:29;;;;;;;6.22;1.13;;;12.30;73.30;;;;;;4983737;28;20038;-70
2023/04/13 11:19:56;;;;;;;1.85;0.88;;;12.40;73.60;;;;;;5004609;28;20481;-70
2023/04/13 11:22:26;;;;;;;5.10;1.17;;;12.70;73.60;;;;;;5007566;28;20480;-70
2023/04/13 11:24:52;;;;;;;3.03;1.23;;;13.00;72.40;;;;;;4995624;28;20022;-70
2023/04/13 11:27:22;;;;;;;2.83;1.33;;;13.30;72.50;;;;;;4997559;28;20102;-70
2023/04/13 11:30:05;;;;;;;4.10;1.10;;;13.30;71.20;;;;;;4998333;28;20025;-70
2023/04/13 11:32:32;;;;;;;2.05;1.38;;;13.50;70.90;;;;;;5002436;28;20022;-70
2023/04/13 11:35:17;;;;;;;6.88;0.95;;;13.70;70.00;;;;;;5003105;28;20022;-74
2023/04/13 11:37:48;;;;;;;3.35;0.90;;;14.00;67.60;;;;;;5005006;28;20042;-74
2023/04/13 11:40:20;;;;;;;1.42;0.82;;;14.00;65.70;;;;;;4999908;28;20495;-73
2023/04/13 11:42:57;;;;;;;1.00;0.85;;;14.10;65.70;;;;;;5009049;28;20418;-70
2023/04/13 11:45:28;;;;;;;0.65;0.60;;;14.10;64.80;;;;;;5005829;28;20030;-68
2023/04/13 11:47:55;;;;;;;2.17;0.85;;;13.90;64.20;;;;;;5006250;28;20400;-72
2023/04/13 11:50:22;;;;;;;5.93;1.60;;;13.80;63.10;;;;;;5009123;28;20030;-69
2023/04/13 11:52:50;;;;;;;7.30;1.33;;;13.80;63.20;;;;;;4986989;28;20038;-69
2023/04/13 11:55:17;;;;;;;8.73;0.85;;;13.90;63.50;;;;;;5009307;28;20028;-72
2023/04/13 11:57:44;;;;;;;1.52;1.05;;;14.00;62.20;;;;;;5003098;28;20151;-72
2023/04/13 12:00:23;;;;;;;4.82;0.75;;;14.10;61.80;;;;;;5001397;28;20029;-72
2023/04/13 12:02:54;;;;;;;4.60;1.20;;;14.20;61.70;;;;;;5006691;28;20053;-72
2023/04/13 12:05:30;;;;;;;1.83;1.00;;;14.20;62.00;;;;;;5007521;28;20030;-73
2023/04/13 12:07:57;;;;;;;2.35;0.90;;;14.10;61.10;;;;;;5007791;28;20104;-69
2023/04/13 12:10:27;;;;;;;5.55;1.63;;;13.90;60.80;;;;;;5008962;28;20113;-73
2023/04/13 12:13:12;;;;;;;3.17;1.13;;;13.80;60.80;;;;;;5008427;28;20030;-74
2023/04/13 12:15:39;;;;;;;1.65;0.63;;;13.70;60.70;;;;;;5011307;28;20712;-73
2023/04/13 12:18:05;;;;;;;0.88;0.40;;;13.90;60.60;;;;;;5006612;28;20125;-73
2023/04/13 12:20:43;;;;;;;1.05;0.70;;;14.20;61.00;;;;;;5000680;28;20493;-71
2023/04/13 12:23:22;;;;;;;2.28;1.10;;;14.20;59.80;;;;;;5010483;28;20041;-70
2023/04/13 12:26:04;;;;;;;1.27;0.93;;;14.20;59.20;;;;;;5005984;28;20105;-71
2023/04/13 12:28:34;;;;;;;2.13;0.57;;;14.00;59.50;;;;;;5008021;28;20034;-76
2023/04/13 12:31:05;;;;;;;1.75;0.70;;;13.90;59.60;;;;;;4992757;28;20040;-69
2023/04/13 12:33:31;;;;;;;5.13;1.15;;;13.90;59.20;;;;;;5005821;28;20038;-69
2023/04/13 12:35:56;;;;;;;3.80;1.58;;;13.90;59.90;;;;;;4992735;28;20038;-76
2023/04/13 12:38:23;;;;;;;4.13;0.90;;;14.00;59.60;;;;;;5008606;28;21552;-69
2023/04/13 12:40:57;;;;;;;4.60;0.93;;;14.10;59.20;;;;;;5003812;28;20065;-75
2023/04/13 12:43:23;;;;;;;1.85;1.00;;;14.20;58.30;;;;;;5008289;28;20076;-67
2023/04/13 12:45:49;;;;;;;2.58;1.23;;;14.20;58.50;;;;;;4992460;28;20484;-69
2023/04/13 12:48:15;;;;;;;2.45;0.68;;;14.20;58.60;;;;;;4988891;28;20061;-75
2023/04/13 12:50:41;;;;;;;1.10;0.90;;;14.30;58.90;;;;;;4991399;28;20047;-76
2023/04/13 12:53:07;;;;;;;3.08;0.93;;;14.60;58.30;;;;;;4995195;28;20084;-71
2023/04/13 12:55:32;;;;;;;5.15;0.98;;;14.70;57.30;;;;;;4980480;28;20072;-73
2023/04/13 12:57:58;;;;;;;2.50;0.70;;;14.70;57.10;;;;;;5009174;28;20038;-76